Main page
METAR-TAF:

METAR-TAF

Airports :

Gwadar International Airport

Gwadar, Pakistan

latitude: 25-13-59N, longitude: 062-19-46E, elevation: 29 m

METAR: missing

Time: 12:59 (07:59 UTC)

Forecast

The report was made 4 hours and 29 minutes ago, at 03:30 UTC
Forecast valid from 20 at 06 UTC to 21 at 06 UTC
Wind 8 kt from the West/Southwest with gusts up to 18 kt
Visibility: 5000 m
Scattered clouds at a height of 3000 ft
Scattered clouds at a height of 10000 ft
haze
From 20 at 1900 UTC
Wind 5 kt from the North/Northeast with gusts up to 15 kt
Visibility: 3000 m
Scattered clouds at a height of 3000 ft
haze
Temporary
from 21 at 00 UTC to 21 at 04 UTC
Wind 10 kt from the North/Northeast with gusts up to 20 kt
Visibility: 2000 m
haze

TAF: OPGD 200330Z 2006/2106 24008G18KT 5000 HZ SCT030 SCT100 FM201900 03005G15KT 3000 HZ SCT030 TEMPO 2100/2104 03010G20KT 2000 HZ NSC

Weather observations and forecasts of more than 4000 airports (METAR and TAF reports).

The available stations are represented by yellow and red dots on the map.

Hover mouse over dot to see the name of the station.

Then click to see weather observations and forecasts.

To change the map : click on the green buttons with a black cross to zoom in, on the green button with a dash to zoom out, or on the green arrows for adjacent maps.


METAR-TAF: